sensor_id;sensor_type;location;lat;lon;timestamp;P1;durP1;ratioP1;P2;durP2;ratioP2
2618;SDS011;1319;52.346;13.096;2023-02-28T00:01:27;4.87;;;2.80;;
2618;SDS011;1319;52.346;13.096;2023-02-28T00:03:52;4.90;;;3.07;;
2618;SDS011;1319;52.346;13.096;2023-02-28T00:06:17;5.37;;;2.80;;
2618;SDS011;1319;52.346;13.096;2023-02-28T00:08:43;3.33;;;2.93;;
2618;SDS011;1319;52.346;13.096;2023-02-28T00:11:10;3.77;;;2.73;;
2618;SDS011;1319;52.346;13.096;2023-02-28T00:13:36;2.97;;;2.70;;
2618;SDS011;1319;52.346;13.096;2023-02-28T00:16:03;3.70;;;2.50;;
2618;SDS011;1319;52.346;13.096;2023-02-28T00:18:29;4.90;;;3.03;;
2618;SDS011;1319;52.346;13.096;2023-02-28T00:20:54;3.80;;;2.90;;
2618;SDS011;1319;52.346;13.096;2023-02-28T00:23:19;4.53;;;2.90;;
2618;SDS011;1319;52.346;13.096;2023-02-28T00:25:44;4.67;;;3.10;;
2618;SDS011;1319;52.346;13.096;2023-02-28T00:28:10;4.43;;;2.90;;
2618;SDS011;1319;52.346;13.096;2023-02-28T00:30:35;3.90;;;3.00;;
2618;SDS011;1319;52.346;13.096;2023-02-28T00:33:00;4.53;;;3.07;;
2618;SDS011;1319;52.346;13.096;2023-02-28T00:35:26;4.20;;;3.10;;
2618;SDS011;1319;52.346;13.096;2023-02-28T00:37:51;4.53;;;3.20;;
2618;SDS011;1319;52.346;13.096;2023-02-28T00:40:16;4.33;;;2.87;;
2618;SDS011;1319;52.346;13.096;2023-02-28T00:42:41;8.60;;;3.23;;
2618;SDS011;1319;52.346;13.096;2023-02-28T00:45:07;4.23;;;2.97;;
2618;SDS011;1319;52.346;13.096;2023-02-28T00:47:33;5.00;;;3.30;;
2618;SDS011;1319;52.346;13.096;2023-02-28T00:49:58;5.43;;;3.60;;
2618;SDS011;1319;52.346;13.096;2023-02-28T00:52:24;3.93;;;3.30;;
2618;SDS011;1319;52.346;13.096;2023-02-28T00:54:49;9.37;;;3.27;;
2618;SDS011;1319;52.346;13.096;2023-02-28T00:57:14;6.03;;;3.20;;
2618;SDS011;1319;52.346;13.096;2023-02-28T00:59:39;4.40;;;3.10;;
2618;SDS011;1319;52.346;13.096;2023-02-28T01:02:05;3.93;;;3.20;;
2618;SDS011;1319;52.346;13.096;2023-02-28T01:04:30;6.73;;;3.10;;
2618;SDS011;1319;52.346;13.096;2023-02-28T01:06:55;3.50;;;3.00;;
2618;SDS011;1319;52.346;13.096;2023-02-28T01:09:20;4.10;;;2.90;;
2618;SDS011;1319;52.346;13.096;2023-02-28T01:11:45;7.43;;;3.20;;
2618;SDS011;1319;52.346;13.096;2023-02-28T01:14:12;5.50;;;3.03;;
2618;SDS011;1319;52.346;13.096;2023-02-28T01:16:38;4.80;;;3.40;;
2618;SDS011;1319;52.346;13.096;2023-02-28T01:19:03;6.10;;;3.67;;
2618;SDS011;1319;52.346;13.096;2023-02-28T01:21:28;7.47;;;3.53;;
2618;SDS011;1319;52.346;13.096;2023-02-28T01:23:55;4.53;;;3.60;;
2618;SDS011;1319;52.346;13.096;2023-02-28T01:26:21;7.17;;;3.73;;
2618;SDS011;1319;52.346;13.096;2023-02-28T01:28:47;6.53;;;3.83;;
2618;SDS011;1319;52.346;13.096;2023-02-28T01:31:13;7.50;;;3.50;;
2618;SDS011;1319;52.346;13.096;2023-02-28T01:33:39;4.57;;;3.97;;
2618;SDS011;1319;52.346;13.096;2023-02-28T01:36:05;6.87;;;4.10;;
2618;SDS011;1319;52.346;13.096;2023-02-28T01:38:31;8.70;;;3.67;;
2618;SDS011;1319;52.346;13.096;2023-02-28T01:40:56;6.43;;;4.03;;
2618;SDS011;1319;52.346;13.096;2023-02-28T01:43:23;5.83;;;3.90;;
2618;SDS011;1319;52.346;13.096;2023-02-28T01:45:49;6.90;;;3.63;;
2618;SDS011;1319;52.346;13.096;2023-02-28T01:48:14;5.93;;;4.40;;
2618;SDS011;1319;52.346;13.096;2023-02-28T01:50:41;7.37;;;4.83;;
2618;SDS011;1319;52.346;13.096;2023-02-28T01:53:09;7.37;;;4.20;;
2618;SDS011;1319;52.346;13.096;2023-02-28T01:55:37;6.10;;;4.27;;
2618;SDS011;1319;52.346;13.096;2023-02-28T01:58:04;8.17;;;4.60;;
2618;SDS011;1319;52.346;13.096;2023-02-28T02:00:30;8.13;;;4.23;;
2618;SDS011;1319;52.346;13.096;2023-02-28T02:03:00;7.00;;;4.47;;
2618;SDS011;1319;52.346;13.096;2023-02-28T02:05:29;10.83;;;5.30;;
2618;SDS011;1319;52.346;13.096;2023-02-28T02:07:56;6.73;;;4.37;;
2618;SDS011;1319;52.346;13.096;2023-02-28T02:23:45;9.20;;;4.70;;
2618;SDS011;1319;52.346;13.096;2023-02-28T02:36:37;7.67;;;4.27;;
2618;SDS011;1319;52.346;13.096;2023-02-28T02:46:41;7.97;;;4.60;;
2618;SDS011;1319;52.346;13.096;2023-02-28T02:49:09;8.23;;;4.60;;
2618;SDS011;1319;52.346;13.096;2023-02-28T02:51:35;6.63;;;4.23;;
2618;SDS011;1319;52.346;13.096;2023-02-28T02:54:08;6.80;;;4.60;;
2618;SDS011;1319;52.346;13.096;2023-02-28T02:56:35;8.90;;;5.27;;
2618;SDS011;1319;52.346;13.096;2023-02-28T02:59:02;11.50;;;5.53;;
2618;SDS011;1319;52.346;13.096;2023-02-28T03:01:28;8.00;;;5.30;;
2618;SDS011;1319;52.346;13.096;2023-02-28T03:03:58;8.27;;;5.20;;
2618;SDS011;1319;52.346;13.096;2023-02-28T03:06:24;10.93;;;5.33;;
2618;SDS011;1319;52.346;13.096;2023-02-28T03:08:50;8.77;;;5.70;;
2618;SDS011;1319;52.346;13.096;2023-02-28T03:11:15;8.90;;;5.23;;
2618;SDS011;1319;52.346;13.096;2023-02-28T03:21:14;6.93;;;4.60;;
2618;SDS011;1319;52.346;13.096;2023-02-28T03:23:49;6.33;;;4.63;;
2618;SDS011;1319;52.346;13.096;2023-02-28T03:26:20;8.57;;;5.07;;
2618;SDS011;1319;52.346;13.096;2023-02-28T03:28:51;9.83;;;4.80;;
2618;SDS011;1319;52.346;13.096;2023-02-28T03:33:44;10.47;;;4.90;;
2618;SDS011;1319;52.346;13.096;2023-02-28T03:36:19;9.33;;;5.27;;
2618;SDS011;1319;52.346;13.096;2023-02-28T03:38:48;12.90;;;6.43;;
2618;SDS011;1319;52.346;13.096;2023-02-28T03:41:19;11.03;;;5.80;;
2618;SDS011;1319;52.346;13.096;2023-02-28T03:43:48;7.97;;;5.60;;
2618;SDS011;1319;52.346;13.096;2023-02-28T03:46:14;11.17;;;6.30;;
2618;SDS011;1319;52.346;13.096;2023-02-28T03:48:43;11.43;;;6.33;;
2618;SDS011;1319;52.346;13.096;2023-02-28T03:51:09;10.43;;;6.50;;
2618;SDS011;1319;52.346;13.096;2023-02-28T03:53:36;9.80;;;5.80;;
2618;SDS011;1319;52.346;13.096;2023-02-28T03:58:51;11.33;;;6.70;;
2618;SDS011;1319;52.346;13.096;2023-02-28T04:01:20;13.13;;;7.10;;
2618;SDS011;1319;52.346;13.096;2023-02-28T04:03:46;11.20;;;6.63;;
2618;SDS011;1319;52.346;13.096;2023-02-28T04:06:16;11.87;;;7.10;;
2618;SDS011;1319;52.346;13.096;2023-02-28T04:08:42;12.53;;;6.37;;
2618;SDS011;1319;52.346;13.096;2023-02-28T04:11:12;15.30;;;7.67;;
2618;SDS011;1319;52.346;13.096;2023-02-28T04:13:39;11.03;;;6.50;;
2618;SDS011;1319;52.346;13.096;2023-02-28T04:16:08;10.77;;;6.90;;
2618;SDS011;1319;52.346;13.096;2023-02-28T04:18:36;16.03;;;7.53;;
2618;SDS011;1319;52.346;13.096;2023-02-28T04:21:02;14.93;;;7.43;;
2618;SDS011;1319;52.346;13.096;2023-02-28T04:23:27;13.27;;;7.43;;
2618;SDS011;1319;52.346;13.096;2023-02-28T04:25:54;15.40;;;7.80;;
2618;SDS011;1319;52.346;13.096;2023-02-28T04:28:19;12.57;;;7.63;;
2618;SDS011;1319;52.346;13.096;2023-02-28T04:30:44;14.67;;;7.33;;
2618;SDS011;1319;52.346;13.096;2023-02-28T04:33:09;15.13;;;8.40;;
2618;SDS011;1319;52.346;13.096;2023-02-28T04:35:35;14.20;;;7.70;;
2618;SDS011;1319;52.346;13.096;2023-02-28T04:38:00;14.37;;;7.83;;
2618;SDS011;1319;52.346;13.096;2023-02-28T04:40:25;19.83;;;7.63;;
2618;SDS011;1319;52.346;13.096;2023-02-28T04:42:50;16.23;;;8.03;;
2618;SDS011;1319;52.346;13.096;2023-02-28T04:45:16;14.27;;;7.87;;
2618;SDS011;1319;52.346;13.096;2023-02-28T04:47:42;18.07;;;8.50;;
2618;SDS011;1319;52.346;13.096;2023-02-28T04:50:07;15.27;;;7.97;;
2618;SDS011;1319;52.346;13.096;2023-02-28T04:52:33;13.43;;;7.40;;
2618;SDS011;1319;52.346;13.096;2023-02-28T04:54:58;14.63;;;7.53;;
2618;SDS011;1319;52.346;13.096;2023-02-28T04:57:24;12.77;;;7.93;;
2618;SDS011;1319;52.346;13.096;2023-02-28T04:59:49;13.13;;;7.87;;
2618;SDS011;1319;52.346;13.096;2023-02-28T05:02:14;11.97;;;7.70;;
2618;SDS011;1319;52.346;13.096;2023-02-28T05:04:39;17.50;;;8.13;;
2618;SDS011;1319;52.346;13.096;2023-02-28T05:07:04;14.13;;;7.90;;
2618;SDS011;1319;52.346;13.096;2023-02-28T05:09:30;12.83;;;7.67;;
2618;SDS011;1319;52.346;13.096;2023-02-28T05:11:55;12.53;;;7.33;;
2618;SDS011;1319;52.346;13.096;2023-02-28T05:14:21;14.50;;;8.73;;
2618;SDS011;1319;52.346;13.096;2023-02-28T05:16:46;13.17;;;8.43;;
2618;SDS011;1319;52.346;13.096;2023-02-28T05:19:11;12.57;;;7.67;;
2618;SDS011;1319;52.346;13.096;2023-02-28T05:21:40;14.40;;;7.40;;
2618;SDS011;1319;52.346;13.096;2023-02-28T05:24:09;12.47;;;7.90;;
2618;SDS011;1319;52.346;13.096;2023-02-28T05:26:35;14.83;;;7.70;;
2618;SDS011;1319;52.346;13.096;2023-02-28T05:29:01;17.53;;;7.80;;
2618;SDS011;1319;52.346;13.096;2023-02-28T05:31:26;18.30;;;7.80;;
2618;SDS011;1319;52.346;13.096;2023-02-28T05:33:51;14.47;;;7.93;;
2618;SDS011;1319;52.346;13.096;2023-02-28T05:36:16;13.93;;;7.70;;
2618;SDS011;1319;52.346;13.096;2023-02-28T05:38:41;16.33;;;8.20;;
2618;SDS011;1319;52.346;13.096;2023-02-28T05:41:10;15.10;;;8.00;;
2618;SDS011;1319;52.346;13.096;2023-02-28T05:43:35;13.97;;;7.93;;
2618;SDS011;1319;52.346;13.096;2023-02-28T05:46:02;16.50;;;8.83;;
2618;SDS011;1319;52.346;13.096;2023-02-28T05:48:28;14.27;;;8.30;;
2618;SDS011;1319;52.346;13.096;2023-02-28T05:50:53;13.87;;;7.70;;
2618;SDS011;1319;52.346;13.096;2023-02-28T05:53:18;13.83;;;7.53;;
2618;SDS011;1319;52.346;13.096;2023-02-28T05:55:43;14.50;;;7.87;;
2618;SDS011;1319;52.346;13.096;2023-02-28T05:58:09;14.93;;;7.60;;
2618;SDS011;1319;52.346;13.096;2023-02-28T06:00:34;15.53;;;8.70;;
2618;SDS011;1319;52.346;13.096;2023-02-28T06:02:59;17.40;;;8.00;;
2618;SDS011;1319;52.346;13.096;2023-02-28T06:05:26;16.03;;;8.30;;
2618;SDS011;1319;52.346;13.096;2023-02-28T06:07:52;14.87;;;8.10;;
2618;SDS011;1319;52.346;13.096;2023-02-28T06:10:18;14.57;;;8.20;;
2618;SDS011;1319;52.346;13.096;2023-02-28T06:12:44;14.70;;;8.27;;
2618;SDS011;1319;52.346;13.096;2023-02-28T06:15:11;15.77;;;9.00;;
2618;SDS011;1319;52.346;13.096;2023-02-28T06:17:37;18.80;;;8.87;;
2618;SDS011;1319;52.346;13.096;2023-02-28T06:20:02;15.10;;;7.87;;
2618;SDS011;1319;52.346;13.096;2023-02-28T06:22:28;22.67;;;8.53;;
2618;SDS011;1319;52.346;13.096;2023-02-28T06:24:53;17.60;;;8.53;;
2618;SDS011;1319;52.346;13.096;2023-02-28T06:27:19;16.23;;;7.87;;
2618;SDS011;1319;52.346;13.096;2023-02-28T06:29:45;18.00;;;9.00;;
2618;SDS011;1319;52.346;13.096;2023-02-28T06:32:10;15.37;;;8.60;;
2618;SDS011;1319;52.346;13.096;2023-02-28T06:34:36;15.77;;;8.93;;
2618;SDS011;1319;52.346;13.096;2023-02-28T06:37:01;17.87;;;8.70;;
2618;SDS011;1319;52.346;13.096;2023-02-28T06:39:27;20.50;;;8.33;;
2618;SDS011;1319;52.346;13.096;2023-02-28T06:41:52;18.63;;;8.93;;
2618;SDS011;1319;52.346;13.096;2023-02-28T06:44:18;17.67;;;9.10;;
2618;SDS011;1319;52.346;13.096;2023-02-28T06:46:44;18.07;;;8.70;;
2618;SDS011;1319;52.346;13.096;2023-02-28T06:49:09;17.97;;;9.03;;
2618;SDS011;1319;52.346;13.096;2023-02-28T06:51:35;15.47;;;8.87;;
2618;SDS011;1319;52.346;13.096;2023-02-28T06:54:01;15.30;;;8.97;;
2618;SDS011;1319;52.346;13.096;2023-02-28T06:56:26;15.03;;;8.97;;
2618;SDS011;1319;52.346;13.096;2023-02-28T06:58:52;16.53;;;8.80;;
2618;SDS011;1319;52.346;13.096;2023-02-28T07:01:18;18.30;;;9.03;;
2618;SDS011;1319;52.346;13.096;2023-02-28T07:03:44;16.10;;;9.13;;
2618;SDS011;1319;52.346;13.096;2023-02-28T07:06:09;18.43;;;9.43;;
2618;SDS011;1319;52.346;13.096;2023-02-28T07:08:34;18.07;;;9.37;;
2618;SDS011;1319;52.346;13.096;2023-02-28T07:11:00;17.53;;;9.40;;
2618;SDS011;1319;52.346;13.096;2023-02-28T07:13:26;20.17;;;10.33;;
2618;SDS011;1319;52.346;13.096;2023-02-28T07:18:19;15.13;;;8.90;;
2618;SDS011;1319;52.346;13.096;2023-02-28T07:20:44;23.40;;;9.57;;
2618;SDS011;1319;52.346;13.096;2023-02-28T07:23:09;20.90;;;9.77;;
2618;SDS011;1319;52.346;13.096;2023-02-28T07:25:35;17.93;;;9.93;;
2618;SDS011;1319;52.346;13.096;2023-02-28T07:28:00;19.17;;;10.03;;
2618;SDS011;1319;52.346;13.096;2023-02-28T07:30:25;24.97;;;10.43;;
2618;SDS011;1319;52.346;13.096;2023-02-28T07:32:51;23.40;;;11.20;;
2618;SDS011;1319;52.346;13.096;2023-02-28T07:35:16;20.20;;;10.93;;
2618;SDS011;1319;52.346;13.096;2023-02-28T07:37:41;18.50;;;10.97;;
2618;SDS011;1319;52.346;13.096;2023-02-28T07:40:08;17.73;;;11.33;;
2618;SDS011;1319;52.346;13.096;2023-02-28T07:42:35;22.30;;;10.87;;
2618;SDS011;1319;52.346;13.096;2023-02-28T07:45:00;22.90;;;11.87;;
2618;SDS011;1319;52.346;13.096;2023-02-28T07:47:25;26.47;;;13.57;;
2618;SDS011;1319;52.346;13.096;2023-02-28T07:49:51;22.53;;;12.63;;
2618;SDS011;1319;52.346;13.096;2023-02-28T07:52:16;21.47;;;12.57;;
2618;SDS011;1319;52.346;13.096;2023-02-28T07:54:41;21.40;;;12.73;;
2618;SDS011;1319;52.346;13.096;2023-02-28T07:57:06;26.20;;;12.80;;
2618;SDS011;1319;52.346;13.096;2023-02-28T07:59:31;22.47;;;12.33;;
2618;SDS011;1319;52.346;13.096;2023-02-28T08:01:57;26.17;;;11.63;;
2618;SDS011;1319;52.346;13.096;2023-02-28T08:04:22;21.10;;;11.33;;
2618;SDS011;1319;52.346;13.096;2023-02-28T08:06:47;19.30;;;10.93;;
2618;SDS011;1319;52.346;13.096;2023-02-28T08:09:12;17.13;;;10.27;;
2618;SDS011;1319;52.346;13.096;2023-02-28T08:11:39;18.00;;;10.27;;
2618;SDS011;1319;52.346;13.096;2023-02-28T08:14:04;20.90;;;10.20;;
2618;SDS011;1319;52.346;13.096;2023-02-28T08:16:29;18.30;;;9.53;;
2618;SDS011;1319;52.346;13.096;2023-02-28T08:18:54;17.13;;;9.50;;
2618;SDS011;1319;52.346;13.096;2023-02-28T08:21:20;14.13;;;8.53;;
2618;SDS011;1319;52.346;13.096;2023-02-28T08:23:46;14.17;;;8.53;;
2618;SDS011;1319;52.346;13.096;2023-02-28T08:26:12;12.83;;;7.73;;
2618;SDS011;1319;52.346;13.096;2023-02-28T08:28:37;15.37;;;8.60;;
2618;SDS011;1319;52.346;13.096;2023-02-28T08:31:06;13.90;;;7.73;;
2618;SDS011;1319;52.346;13.096;2023-02-28T08:33:32;11.73;;;7.77;;
2618;SDS011;1319;52.346;13.096;2023-02-28T08:35:57;15.57;;;8.50;;
2618;SDS011;1319;52.346;13.096;2023-02-28T08:38:22;11.10;;;6.53;;
2618;SDS011;1319;52.346;13.096;2023-02-28T08:40:48;6.33;;;4.47;;
2618;SDS011;1319;52.346;13.096;2023-02-28T08:43:13;7.00;;;4.40;;
2618;SDS011;1319;52.346;13.096;2023-02-28T08:45:38;5.17;;;3.67;;
2618;SDS011;1319;52.346;13.096;2023-02-28T08:48:03;4.90;;;3.97;;
2618;SDS011;1319;52.346;13.096;2023-02-28T08:50:29;4.63;;;4.00;;
2618;SDS011;1319;52.346;13.096;2023-02-28T08:52:54;6.27;;;4.37;;
2618;SDS011;1319;52.346;13.096;2023-02-28T08:55:19;5.00;;;4.33;;
2618;SDS011;1319;52.346;13.096;2023-02-28T08:57:44;9.77;;;5.07;;
2618;SDS011;1319;52.346;13.096;2023-02-28T09:00:10;6.50;;;4.93;;
2618;SDS011;1319;52.346;13.096;2023-02-28T09:02:38;7.07;;;5.40;;
2618;SDS011;1319;52.346;13.096;2023-02-28T09:05:04;6.07;;;4.77;;
2618;SDS011;1319;52.346;13.096;2023-02-28T09:07:29;6.60;;;5.13;;
2618;SDS011;1319;52.346;13.096;2023-02-28T09:09:54;5.60;;;4.60;;
2618;SDS011;1319;52.346;13.096;2023-02-28T09:12:20;5.07;;;4.57;;
2618;SDS011;1319;52.346;13.096;2023-02-28T09:14:46;5.20;;;4.60;;
2618;SDS011;1319;52.346;13.096;2023-02-28T09:17:11;10.13;;;5.17;;
2618;SDS011;1319;52.346;13.096;2023-02-28T09:19:36;5.80;;;4.37;;
2618;SDS011;1319;52.346;13.096;2023-02-28T09:22:02;5.37;;;4.57;;
2618;SDS011;1319;52.346;13.096;2023-02-28T09:24:27;5.17;;;3.50;;
2618;SDS011;1319;52.346;13.096;2023-02-28T09:26:52;6.70;;;3.63;;
2618;SDS011;1319;52.346;13.096;2023-02-28T09:29:17;5.33;;;3.50;;
2618;SDS011;1319;52.346;13.096;2023-02-28T09:31:43;5.43;;;3.30;;
2618;SDS011;1319;52.346;13.096;2023-02-28T09:34:08;3.20;;;2.90;;
2618;SDS011;1319;52.346;13.096;2023-02-28T09:36:33;3.83;;;3.20;;
2618;SDS011;1319;52.346;13.096;2023-02-28T09:38:59;4.50;;;3.57;;
2618;SDS011;1319;52.346;13.096;2023-02-28T09:41:25;5.10;;;3.40;;
2618;SDS011;1319;52.346;13.096;2023-02-28T09:43:54;6.17;;;3.20;;
2618;SDS011;1319;52.346;13.096;2023-02-28T09:46:40;3.57;;;3.03;;
2618;SDS011;1319;52.346;13.096;2023-02-28T09:49:12;4.20;;;2.40;;
2618;SDS011;1319;52.346;13.096;2023-02-28T09:51:54;4.10;;;2.00;;
2618;SDS011;1319;52.346;13.096;2023-02-28T09:54:22;2.63;;;2.37;;
2618;SDS011;1319;52.346;13.096;2023-02-28T09:56:51;3.03;;;2.10;;
2618;SDS011;1319;52.346;13.096;2023-02-28T10:02:24;3.60;;;2.20;;
2618;SDS011;1319;52.346;13.096;2023-02-28T10:05:00;3.93;;;2.07;;
2618;SDS011;1319;52.346;13.096;2023-02-28T10:10:27;2.30;;;2.10;;
2618;SDS011;1319;52.346;13.096;2023-02-28T10:12:55;2.93;;;2.27;;
2618;SDS011;1319;52.346;13.096;2023-02-28T10:15:21;3.97;;;2.10;;
2618;SDS011;1319;52.346;13.096;2023-02-28T10:17:48;2.43;;;2.20;;
2618;SDS011;1319;52.346;13.096;2023-02-28T10:20:18;2.30;;;1.90;;
2618;SDS011;1319;52.346;13.096;2023-02-28T10:22:58;2.07;;;1.90;;
2618;SDS011;1319;52.346;13.096;2023-02-28T10:25:24;2.97;;;2.03;;
2618;SDS011;1319;52.346;13.096;2023-02-28T10:27:52;3.07;;;1.90;;
2618;SDS011;1319;52.346;13.096;2023-02-28T10:30:18;1.90;;;1.80;;
2618;SDS011;1319;52.346;13.096;2023-02-28T10:32:46;2.17;;;2.00;;
2618;SDS011;1319;52.346;13.096;2023-02-28T10:35:30;2.40;;;2.20;;
2618;SDS011;1319;52.346;13.096;2023-02-28T10:37:57;2.40;;;2.20;;
2618;SDS011;1319;52.346;13.096;2023-02-28T10:43:00;3.50;;;2.07;;
2618;SDS011;1319;52.346;13.096;2023-02-28T10:45:26;2.10;;;1.90;;
2618;SDS011;1319;52.346;13.096;2023-02-28T10:53:17;2.80;;;2.10;;
2618;SDS011;1319;52.346;13.096;2023-02-28T10:55:58;3.13;;;2.00;;
2618;SDS011;1319;52.346;13.096;2023-02-28T10:58:24;4.73;;;2.23;;
2618;SDS011;1319;52.346;13.096;2023-02-28T11:00:50;3.05;;;2.30;;
2618;SDS011;1319;52.346;13.096;2023-02-28T11:03:23;2.55;;;2.20;;
2618;SDS011;1319;52.346;13.096;2023-02-28T11:05:49;2.95;;;2.15;;
2618;SDS011;1319;52.346;13.096;2023-02-28T11:08:15;2.13;;;2.00;;
2618;SDS011;1319;52.346;13.096;2023-02-28T11:10:48;2.83;;;2.33;;
2618;SDS011;1319;52.346;13.096;2023-02-28T11:13:17;2.88;;;2.58;;
2618;SDS011;1319;52.346;13.096;2023-02-28T11:15:46;4.05;;;2.40;;
2618;SDS011;1319;52.346;13.096;2023-02-28T11:19:00;4.75;;;2.50;;
2618;SDS011;1319;52.346;13.096;2023-02-28T11:21:01;3.00;;;2.70;;
2618;SDS011;1319;52.346;13.096;2023-02-28T11:23:27;3.15;;;2.20;;
2618;SDS011;1319;52.346;13.096;2023-02-28T11:25:54;5.25;;;2.30;;
2618;SDS011;1319;52.346;13.096;2023-02-28T11:28:25;3.45;;;2.17;;
2618;SDS011;1319;52.346;13.096;2023-02-28T11:33:29;4.68;;;2.17;;
2618;SDS011;1319;52.346;13.096;2023-02-28T11:35:57;3.00;;;2.25;;
2618;SDS011;1319;52.346;13.096;2023-02-28T11:38:23;3.10;;;2.40;;
2618;SDS011;1319;52.346;13.096;2023-02-28T11:40:57;2.60;;;2.40;;
2618;SDS011;1319;52.346;13.096;2023-02-28T11:43:53;2.28;;;2.08;;
2618;SDS011;1319;52.346;13.096;2023-02-28T11:46:25;2.50;;;2.30;;
2618;SDS011;1319;52.346;13.096;2023-02-28T11:51:21;2.50;;;2.30;;
2618;SDS011;1319;52.346;13.096;2023-02-28T11:54:02;2.60;;;2.40;;
2618;SDS011;1319;52.346;13.096;2023-02-28T11:56:33;5.38;;;2.50;;
2618;SDS011;1319;52.346;13.096;2023-02-28T12:01:50;2.60;;;2.30;;
2618;SDS011;1319;52.346;13.096;2023-02-28T12:04:21;3.10;;;2.40;;
2618;SDS011;1319;52.346;13.096;2023-02-28T12:09:42;3.72;;;2.20;;
2618;SDS011;1319;52.346;13.096;2023-02-28T12:28:01;2.70;;;2.50;;
2618;SDS011;1319;52.346;13.096;2023-02-28T12:30:31;2.70;;;2.40;;
2618;SDS011;1319;52.346;13.096;2023-02-28T12:35:37;2.88;;;2.40;;
2618;SDS011;1319;52.346;13.096;2023-02-28T12:38:05;3.17;;;2.60;;
2618;SDS011;1319;52.346;13.096;2023-02-28T12:40:45;4.30;;;2.70;;
2618;SDS011;1319;52.346;13.096;2023-02-28T12:43:12;3.58;;;2.78;;
2618;SDS011;1319;52.346;13.096;2023-02-28T12:45:43;4.25;;;2.70;;
2618;SDS011;1319;52.346;13.096;2023-02-28T12:48:11;2.85;;;2.50;;
2618;SDS011;1319;52.346;13.096;2023-02-28T12:50:38;3.05;;;2.70;;
2618;SDS011;1319;52.346;13.096;2023-02-28T13:00:36;5.43;;;2.85;;
2618;SDS011;1319;52.346;13.096;2023-02-28T13:08:58;3.28;;;2.95;;
2618;SDS011;1319;52.346;13.096;2023-02-28T13:11:05;2.85;;;2.65;;
2618;SDS011;1319;52.346;13.096;2023-02-28T13:13:31;3.15;;;2.88;;
2618;SDS011;1319;52.346;13.096;2023-02-28T13:21:01;3.13;;;2.90;;
2618;SDS011;1319;52.346;13.096;2023-02-28T13:26:12;3.35;;;2.83;;
2618;SDS011;1319;52.346;13.096;2023-02-28T13:31:22;2.85;;;2.65;;
2618;SDS011;1319;52.346;13.096;2023-02-28T13:38:45;4.05;;;2.90;;
2618;SDS011;1319;52.346;13.096;2023-02-28T13:46:27;3.13;;;2.80;;
2618;SDS011;1319;52.346;13.096;2023-02-28T13:48:52;4.32;;;3.08;;
2618;SDS011;1319;52.346;13.096;2023-02-28T13:54:06;3.92;;;3.33;;
2618;SDS011;1319;52.346;13.096;2023-02-28T13:56:41;4.60;;;3.30;;
2618;SDS011;1319;52.346;13.096;2023-02-28T14:01:59;4.28;;;2.97;;
2618;SDS011;1319;52.346;13.096;2023-02-28T14:07:10;3.20;;;2.90;;
2618;SDS011;1319;52.346;13.096;2023-02-28T14:09:45;4.47;;;3.17;;
2618;SDS011;1319;52.346;13.096;2023-02-28T14:14:56;3.40;;;3.10;;
2618;SDS011;1319;52.346;13.096;2023-02-28T14:17:21;4.55;;;2.80;;
2618;SDS011;1319;52.346;13.096;2023-02-28T14:19:47;3.50;;;3.20;;
2618;SDS011;1319;52.346;13.096;2023-02-28T14:27:24;4.30;;;3.15;;
2618;SDS011;1319;52.346;13.096;2023-02-28T14:35:13;7.05;;;3.20;;
2618;SDS011;1319;52.346;13.096;2023-02-28T14:37:41;6.30;;;3.45;;
2618;SDS011;1319;52.346;13.096;2023-02-28T14:40:17;6.78;;;3.25;;
2618;SDS011;1319;52.346;13.096;2023-02-28T14:42:48;5.85;;;3.80;;
2618;SDS011;1319;52.346;13.096;2023-02-28T14:45:19;4.53;;;3.00;;
2618;SDS011;1319;52.346;13.096;2023-02-28T14:47:45;3.50;;;3.20;;
2618;SDS011;1319;52.346;13.096;2023-02-28T14:50:17;4.15;;;3.13;;
2618;SDS011;1319;52.346;13.096;2023-02-28T14:52:43;5.82;;;3.10;;
2618;SDS011;1319;52.346;13.096;2023-02-28T14:55:12;3.42;;;3.13;;
2618;SDS011;1319;52.346;13.096;2023-02-28T14:57:40;4.53;;;3.25;;
2618;SDS011;1319;52.346;13.096;2023-02-28T15:02:35;3.90;;;3.50;;
2618;SDS011;1319;52.346;13.096;2023-02-28T15:07:35;7.93;;;3.88;;
2618;SDS011;1319;52.346;13.096;2023-02-28T15:10:07;4.80;;;3.58;;
2618;SDS011;1319;52.346;13.096;2023-02-28T15:12:33;3.63;;;3.20;;
2618;SDS011;1319;52.346;13.096;2023-02-28T15:14:59;4.03;;;3.00;;
2618;SDS011;1319;52.346;13.096;2023-02-28T15:17:24;3.77;;;3.37;;
2618;SDS011;1319;52.346;13.096;2023-02-28T15:19:50;5.77;;;3.23;;
2618;SDS011;1319;52.346;13.096;2023-02-28T15:22:18;4.20;;;3.40;;
2618;SDS011;1319;52.346;13.096;2023-02-28T15:24:48;5.00;;;3.40;;
2618;SDS011;1319;52.346;13.096;2023-02-28T15:27:15;5.67;;;3.37;;
2618;SDS011;1319;52.346;13.096;2023-02-28T15:29:44;6.30;;;3.60;;
2618;SDS011;1319;52.346;13.096;2023-02-28T15:32:20;9.07;;;4.00;;
2618;SDS011;1319;52.346;13.096;2023-02-28T15:34:46;6.23;;;3.53;;
2618;SDS011;1319;52.346;13.096;2023-02-28T15:39:53;8.03;;;3.90;;
2618;SDS011;1319;52.346;13.096;2023-02-28T15:42:20;7.80;;;4.43;;
2618;SDS011;1319;52.346;13.096;2023-02-28T15:44:45;8.10;;;4.63;;
2618;SDS011;1319;52.346;13.096;2023-02-28T15:47:16;7.53;;;3.90;;
2618;SDS011;1319;52.346;13.096;2023-02-28T15:52:15;5.80;;;3.60;;
2618;SDS011;1319;52.346;13.096;2023-02-28T15:54:41;4.60;;;3.67;;
2618;SDS011;1319;52.346;13.096;2023-02-28T15:57:10;6.33;;;3.83;;
2618;SDS011;1319;52.346;13.096;2023-02-28T15:59:37;7.00;;;3.50;;
2618;SDS011;1319;52.346;13.096;2023-02-28T16:04:34;8.50;;;3.50;;
2618;SDS011;1319;52.346;13.096;2023-02-28T16:09:28;5.83;;;3.57;;
2618;SDS011;1319;52.346;13.096;2023-02-28T16:11:55;5.70;;;3.50;;
2618;SDS011;1319;52.346;13.096;2023-02-28T16:14:23;5.93;;;4.03;;
2618;SDS011;1319;52.346;13.096;2023-02-28T16:16:50;6.63;;;3.80;;
2618;SDS011;1319;52.346;13.096;2023-02-28T16:19:16;4.63;;;3.37;;
2618;SDS011;1319;52.346;13.096;2023-02-28T16:21:41;4.80;;;3.70;;
2618;SDS011;1319;52.346;13.096;2023-02-28T16:24:07;7.40;;;3.40;;
2618;SDS011;1319;52.346;13.096;2023-02-28T16:26:32;5.53;;;4.07;;
2618;SDS011;1319;52.346;13.096;2023-02-28T16:28:59;7.77;;;5.07;;
2618;SDS011;1319;52.346;13.096;2023-02-28T16:31:24;6.70;;;5.00;;
2618;SDS011;1319;52.346;13.096;2023-02-28T16:33:49;9.47;;;6.10;;
2618;SDS011;1319;52.346;13.096;2023-02-28T16:36:19;10.00;;;6.03;;
2618;SDS011;1319;52.346;13.096;2023-02-28T16:38:44;10.70;;;6.80;;
2618;SDS011;1319;52.346;13.096;2023-02-28T16:41:11;9.47;;;6.67;;
2618;SDS011;1319;52.346;13.096;2023-02-28T16:43:41;6.13;;;4.00;;
2618;SDS011;1319;52.346;13.096;2023-02-28T16:46:08;7.70;;;4.60;;
2618;SDS011;1319;52.346;13.096;2023-02-28T16:48:34;7.50;;;4.73;;
2618;SDS011;1319;52.346;13.096;2023-02-28T16:51:00;10.20;;;4.90;;
2618;SDS011;1319;52.346;13.096;2023-02-28T16:53:25;8.60;;;5.20;;
2618;SDS011;1319;52.346;13.096;2023-02-28T16:55:50;11.27;;;6.60;;
2618;SDS011;1319;52.346;13.096;2023-02-28T16:58:16;8.43;;;5.50;;
2618;SDS011;1319;52.346;13.096;2023-02-28T17:00:42;7.77;;;5.10;;
2618;SDS011;1319;52.346;13.096;2023-02-28T17:03:29;7.63;;;4.80;;
2618;SDS011;1319;52.346;13.096;2023-02-28T17:05:54;4.43;;;3.17;;
2618;SDS011;1319;52.346;13.096;2023-02-28T17:08:19;6.10;;;3.90;;
2618;SDS011;1319;52.346;13.096;2023-02-28T17:10:45;6.83;;;3.90;;
2618;SDS011;1319;52.346;13.096;2023-02-28T17:13:10;7.43;;;3.77;;
2618;SDS011;1319;52.346;13.096;2023-02-28T17:15:35;11.17;;;4.37;;
2618;SDS011;1319;52.346;13.096;2023-02-28T17:18:01;7.87;;;4.10;;
2618;SDS011;1319;52.346;13.096;2023-02-28T17:20:26;10.17;;;4.90;;
2618;SDS011;1319;52.346;13.096;2023-02-28T17:22:54;8.93;;;4.63;;
2618;SDS011;1319;52.346;13.096;2023-02-28T17:25:20;8.60;;;4.47;;
2618;SDS011;1319;52.346;13.096;2023-02-28T17:27:45;9.73;;;4.73;;
2618;SDS011;1319;52.346;13.096;2023-02-28T17:32:39;8.67;;;4.50;;
2618;SDS011;1319;52.346;13.096;2023-02-28T17:35:05;7.07;;;4.37;;
2618;SDS011;1319;52.346;13.096;2023-02-28T17:37:30;6.80;;;4.07;;